Time;durP1;ratioP1;P1;durP2;ratioP2;P2;SDS_P1;SDS_P2;PMS_P1;PMS_P2;Temp;Humidity;BMP_temperature;BMP_pressure;BME280_temperature;BME280_humidity;BME280_pressure;Samples;Min_cycle;Max_cycle;Signal;HPM_P1;HPM_P2
2022/08/09 00:00:13;;;;;;;8.03;3.02;;;;;;;17.85;88.29;100125.88;1748087;82;21707;-73
2022/08/09 00:02:40;;;;;;;6.25;2.98;;;;;;;17.83;88.38;100129.47;1748135;81;21110;-74
2022/08/09 00:05:07;;;;;;;2.98;2.67;;;;;;;17.81;88.64;100125.19;1748570;81;21153;-74
2022/08/09 00:07:34;;;;;;;4.87;2.83;;;;;;;17.79;88.93;100127.94;1748251;82;21058;-74
2022/08/09 00:10:01;;;;;;;8.55;3.33;;;;;;;17.79;89.05;100122.61;1747623;81;21035;-74
2022/08/09 00:12:27;;;;;;;7.30;3.30;;;;;;;17.80;89.02;100121.68;1747801;82;21090;-74
2022/08/09 00:14:54;;;;;;;6.28;2.77;;;;;;;17.80;89.13;100118.14;1747824;82;20986;-74
2022/08/09 00:17:20;;;;;;;8.55;3.05;;;;;;;17.77;89.27;100117.84;1747925;82;21290;-74
2022/08/09 00:19:47;;;;;;;4.20;2.95;;;;;;;17.78;89.41;100116.89;1747588;82;22050;-73
2022/08/09 00:22:13;;;;;;;4.03;2.67;;;;;;;17.79;89.45;100122.61;1747608;82;21078;-74
2022/08/09 00:24:40;;;;;;;2.60;2.40;;;;;;;17.80;89.42;100120.34;1747616;82;20996;-74
2022/08/09 00:27:07;;;;;;;6.33;3.52;;;;;;;17.80;89.45;100115.48;1747716;82;21130;-74
2022/08/09 00:29:34;;;;;;;2.80;2.60;;;;;;;17.80;89.50;100120.80;1747591;82;21132;-74
2022/08/09 00:32:00;;;;;;;4.28;3.20;;;;;;;17.78;89.66;100119.55;1747772;82;21580;-75
2022/08/09 00:34:26;;;;;;;6.42;3.42;;;;;;;17.76;89.80;100112.13;1747777;82;21072;-74
2022/08/09 00:36:53;;;;;;;3.37;2.90;;;;;;;17.74;89.83;100111.84;1747689;82;21011;-75
2022/08/09 00:39:20;;;;;;;11.38;2.83;;;;;;;17.73;89.81;100119.42;1747997;82;21081;-74
2022/08/09 00:41:48;;;;;;;4.92;3.10;;;;;;;17.72;89.82;100117.25;1747670;82;21399;-75
2022/08/09 00:44:15;;;;;;;2.95;2.75;;;;;;;17.71;89.81;100116.00;1718537;82;21024;-75
2022/08/09 00:46:42;;;;;;;5.90;2.85;;;;;;;17.69;89.89;100113.41;1747625;82;21072;-74
2022/08/09 00:49:09;;;;;;;3.33;3.02;;;;;;;17.68;89.94;100115.67;1748926;81;21074;-74
2022/08/09 00:51:36;;;;;;;4.72;2.62;;;;;;;17.68;89.97;100119.67;1753141;81;21122;-74
2022/08/09 00:54:03;;;;;;;9.40;2.85;;;;;;;17.67;89.83;100113.98;1753373;81;21536;-74
2022/08/09 00:56:29;;;;;;;8.65;2.52;;;;;;;17.67;89.74;100121.08;1753093;81;21046;-74
2022/08/09 00:58:56;;;;;;;8.88;2.83;;;;;;;17.63;89.71;100113.73;1748965;81;21069;-74
2022/08/09 01:01:31;;;;;;;7.40;2.60;;;;;;;17.61;89.76;100115.63;1746202;82;21060;-74
2022/08/09 01:04:22;;;;;;;;;;;;;;;17.61;89.75;100115.63;1715236;83;21142;-74
2022/08/09 01:07:09;;;;;;;5.00;2.83;;;;;;;17.61;89.80;100115.63;1712875;82;20749;-74
2022/08/09 01:10:29;;;;;;;3.72;2.67;;;;;;;17.59;89.87;100118.37;1677972;85;21063;-75
2022/08/09 01:13:27;;;;;;;4.95;2.80;;;;;;;17.58;90.06;100122.45;1712744;83;21020;-75
2022/08/09 01:15:54;;;;;;;4.05;3.12;;;;;;;17.58;90.30;100126.44;1678212;85;21996;-75
2022/08/09 01:18:26;;;;;;;5.50;2.80;;;;;;;17.56;90.48;100127.84;1677964;85;21074;-75
2022/08/09 01:21:34;;;;;;;4.33;2.40;;;;;;;17.55;90.62;100126.59;1706293;83;21119;-76
2022/08/09 01:24:27;;;;;;;3.45;2.60;;;;;;;17.56;90.69;100124.34;1678162;85;21044;-76
2022/08/09 01:27:07;;;;;;;8.00;2.60;;;;;;;17.57;90.84;100119.41;1712666;82;21056;-75
2022/08/09 01:30:03;;;;;;;4.20;2.42;;;;;;;17.56;90.88;100119.02;1677934;85;21134;-75
2022/08/09 01:32:37;;;;;;;4.05;2.42;;;;;;;17.55;91.02;100119.94;1678243;85;21019;-75
2022/08/09 01:35:24;;;;;;;9.78;3.15;;;;;;;17.57;91.42;100113.61;1712912;83;21192;-75
2022/08/09 01:37:56;;;;;;;4.33;2.45;;;;;;;17.59;91.62;100114.86;1678139;85;21003;-75
2022/08/09 01:40:23;;;;;;;2.77;2.15;;;;;;;17.59;92.10;100111.72;1712845;83;21126;-75
2022/08/09 01:42:49;;;;;;;2.90;2.27;;;;;;;17.59;92.22;100112.20;1712733;83;21023;-75
2022/08/09 01:45:16;;;;;;;2.12;2.02;;;;;;;17.61;92.22;100115.63;1657408;85;21060;-75
2022/08/09 01:47:43;;;;;;;1.80;1.70;;;;;;;17.63;92.36;100117.73;1678229;85;22301;-75
2022/08/09 01:50:10;;;;;;;2.58;1.80;;;;;;;17.62;92.33;100113.38;1677894;85;21118;-75
2022/08/09 01:52:38;;;;;;;3.67;1.90;;;;;;;17.63;92.14;100116.40;1712783;83;21123;-75
2022/08/09 01:55:05;;;;;;;3.47;1.70;;;;;;;17.66;91.97;100118.90;1677803;85;21043;-76
2022/08/09 01:57:40;;;;;;;1.50;1.40;;;;;;;17.69;91.80;100124.55;1712767;83;21016;-75
2022/08/09 02:00:09;;;;;;;2.05;1.55;;;;;;;17.69;91.71;100125.39;1712379;83;21884;-76
2022/08/09 02:02:45;;;;;;;1.57;1.47;;;;;;;17.69;91.55;100122.73;1712291;83;21201;-75
2022/08/09 02:05:13;;;;;;;2.35;1.50;;;;;;;17.69;91.35;100124.06;1677965;85;21011;-76
2022/08/09 02:32:58;;;;;;;1.98;1.67;;;;;;;17.67;89.66;100123.30;1718219;80;21628;-75
2022/08/09 02:35:25;;;;;;;1.70;1.60;;;;;;;17.67;89.50;100117.09;1720478;83;21606;-75
2022/08/09 02:37:55;;;;;;;1.52;1.40;;;;;;;17.67;89.49;100123.30;1720852;83;21095;-75
2022/08/09 02:40:21;;;;;;;1.62;1.52;;;;;;;17.66;89.40;100126.88;1720454;83;21012;-76
2022/08/09 02:42:50;;;;;;;1.60;1.40;;;;;;;17.63;89.37;100132.37;1720850;83;22255;-75
2022/08/09 02:45:33;;;;;;;3.58;1.42;;;;;;;17.62;89.41;100125.34;1721049;82;21015;-75
2022/08/09 02:48:03;;;;;;;1.55;1.45;;;;;;;17.62;89.33;100125.34;1720298;83;21121;-75
2022/08/09 02:50:43;;;;;;;1.70;1.60;;;;;;;17.63;89.29;100132.37;1720462;83;21027;-75
2022/08/09 02:53:17;;;;;;;4.97;1.80;;;;;;;17.62;89.29;100138.65;1720844;83;21010;-74
2022/08/09 02:55:43;;;;;;;1.92;1.50;;;;;;;17.62;89.33;100141.31;1720716;83;21771;-74
2022/08/09 02:58:10;;;;;;;4.65;1.47;;;;;;;17.62;89.28;100127.52;1720322;83;21089;-74
2022/08/09 03:00:38;;;;;;;1.72;1.37;;;;;;;17.64;89.33;100134.09;1720896;83;21121;-74
2022/08/09 03:03:04;;;;;;;5.67;1.50;;;;;;;17.63;89.26;100129.70;1698167;83;22110;-74
2022/08/09 03:05:31;;;;;;;3.40;1.47;;;;;;;17.63;89.26;100137.23;1720458;83;21098;-74
2022/08/09 03:08:00;;;;;;;2.45;1.40;;;;;;;17.63;89.24;100143.02;1720519;83;21141;-74
2022/08/09 03:10:27;;;;;;;2.17;1.57;;;;;;;17.64;89.20;100134.09;1739007;81;21482;-74
2022/08/09 03:12:54;;;;;;;1.50;1.40;;;;;;;17.65;89.28;100126.48;1758581;81;21082;-74
2022/08/09 03:15:21;;;;;;;2.22;1.90;;;;;;;17.65;89.25;100127.81;1758681;81;21031;-75
2022/08/09 03:17:47;;;;;;;2.87;1.32;;;;;;;17.66;89.25;100124.22;1758565;81;21074;-74
2022/08/09 03:20:14;;;;;;;2.00;1.67;;;;;;;17.68;89.15;100123.66;1758500;81;21110;-74
2022/08/09 03:22:43;;;;;;;1.72;1.62;;;;;;;17.71;89.17;100128.82;1758620;81;21061;-74
2022/08/09 03:25:11;;;;;;;1.62;1.52;;;;;;;17.71;89.21;100127.48;1758338;81;21054;-75
2022/08/09 03:27:42;;;;;;;1.87;1.40;;;;;;;17.71;89.29;100128.82;1758838;81;21987;-75
2022/08/09 03:30:10;;;;;;;3.83;1.37;;;;;;;17.74;89.32;100127.33;1726852;81;21003;-74
2022/08/09 03:32:37;;;;;;;5.00;2.20;;;;;;;17.75;89.29;100129.06;1758455;81;21134;-73
2022/08/09 03:35:04;;;;;;;1.82;1.70;;;;;;;17.78;89.28;100132.86;1726658;81;21517;-74
2022/08/09 03:37:31;;;;;;;1.62;1.40;;;;;;;17.79;89.31;100141.24;1758455;81;21181;-74
2022/08/09 03:39:59;;;;;;;2.35;1.50;;;;;;;17.83;89.25;100142.78;1727168;81;21110;-75
2022/08/09 03:42:25;;;;;;;3.20;1.55;;;;;;;17.86;89.22;100146.24;1758458;81;21004;-75
2022/08/09 03:44:52;;;;;;;1.50;1.40;;;;;;;17.85;89.27;100149.84;1758722;81;21895;-74
2022/08/09 03:47:18;;;;;;;1.90;1.22;;;;;;;17.86;89.29;100151.56;1758521;81;21514;-76
2022/08/09 03:49:45;;;;;;;1.67;1.40;;;;;;;17.89;89.25;100144.30;1758620;81;21117;-76
2022/08/09 03:52:11;;;;;;;3.30;1.45;;;;;;;17.93;89.22;100146.31;1758701;81;21074;-75
2022/08/09 03:54:38;;;;;;;1.47;1.37;;;;;;;17.95;89.13;100144.42;1758581;81;20995;-75
2022/08/09 03:57:10;;;;;;;1.50;1.50;;;;;;;17.98;89.14;100144.26;1758931;81;21532;-75
2022/08/09 03:59:37;;;;;;;1.90;1.32;;;;;;;18.00;89.19;100137.92;1758628;81;21054;-76
2022/08/09 04:02:04;;;;;;;1.45;1.30;;;;;;;18.07;89.22;100141.55;1758852;81;21066;-76
2022/08/09 04:04:31;;;;;;;7.22;1.30;;;;;;;18.11;89.28;100146.63;1758763;81;21054;-74
2022/08/09 04:06:59;;;;;;;3.42;1.40;;;;;;;18.14;89.06;100138.47;1758743;81;21555;-75
2022/08/09 04:09:26;;;;;;;1.60;1.22;;;;;;;18.19;88.88;100133.74;1758638;81;21134;-75
2022/08/09 04:12:16;;;;;;;1.15;1.15;;;;;;;18.23;88.59;100134.91;1758635;81;21075;-76
2022/08/09 04:14:42;;;;;;;1.57;1.22;;;;;;;18.24;88.22;100137.94;1758831;81;21529;-75
2022/08/09 04:17:09;;;;;;;1.15;1.05;;;;;;;18.27;87.98;100139.10;1758678;81;21201;-76
2022/08/09 04:19:35;;;;;;;1.75;1.25;;;;;;;18.28;87.75;100144.83;1758565;81;21054;-75
2022/08/09 04:22:02;;;;;;;1.40;1.30;;;;;;;18.28;87.56;100139.50;1758551;81;21252;-76
2022/08/09 04:24:30;;;;;;;1.77;1.22;;;;;;;18.29;86.97;100131.42;1758996;81;21079;-75
2022/08/09 04:26:57;;;;;;;1.30;1.20;;;;;;;18.30;86.74;100130.94;1758609;81;21011;-76
2022/08/09 04:29:23;;;;;;;3.70;1.35;;;;;;;18.30;86.52;100124.28;1758471;81;21038;-76
2022/08/09 04:31:52;;;;;;;1.47;0.98;;;;;;;18.33;86.45;100132.10;1758961;81;21556;-76
2022/08/09 04:34:19;;;;;;;1.32;1.22;;;;;;;18.37;86.17;100133.18;1758489;81;21161;-77
2022/08/09 04:36:46;;;;;;;1.27;1.17;;;;;;;18.43;86.19;100125.78;1758698;81;21141;-76
2022/08/09 04:39:12;;;;;;;1.50;1.40;;;;;;;18.46;85.75;100133.12;1758591;81;21039;-75
2022/08/09 04:41:39;;;;;;;1.57;1.00;;;;;;;18.50;85.66;100131.98;1758625;81;21007;-76
2022/08/09 04:44:10;;;;;;;1.25;1.00;;;;;;;18.55;85.14;100131.23;1758901;81;21758;-76
2022/08/09 04:46:34;;;;;;;1.15;1.10;;;;;;;18.61;84.55;100131.83;1758029;81;21190;-76
2022/08/09 04:49:00;;;;;;;1.42;1.20;;;;;;;18.66;84.35;100128.42;1756268;81;21051;-76
2022/08/09 04:51:27;;;;;;;1.37;0.95;;;;;;;18.72;84.53;100130.25;1724597;83;21121;-76
2022/08/09 04:53:53;;;;;;;1.02;1.00;;;;;;;18.80;83.82;100128.48;1724294;83;21548;-76
2022/08/09 04:56:20;;;;;;;1.00;0.93;;;;;;;18.87;83.10;100127.68;1724334;83;21132;-75
2022/08/09 04:58:46;;;;;;;2.50;0.80;;;;;;;18.92;82.54;100130.92;1724279;83;21117;-76
2022/08/09 05:01:13;;;;;;;1.67;0.98;;;;;;;18.96;82.04;100133.78;1724426;83;21070;-75
2022/08/09 05:03:39;;;;;;;1.20;0.95;;;;;;;19.00;81.39;100135.33;1724299;83;21575;-76
2022/08/09 05:06:06;;;;;;;3.62;1.05;;;;;;;19.04;81.57;100134.18;1724171;83;21001;-76
2022/08/09 05:08:34;;;;;;;4.03;0.88;;;;;;;19.08;81.74;100137.06;1724178;83;21038;-76
2022/08/09 05:11:01;;;;;;;2.27;0.90;;;;;;;19.14;81.26;100138.50;1724407;83;21151;-76
2022/08/09 05:13:28;;;;;;;2.08;0.88;;;;;;;19.17;80.94;100137.47;1724268;83;21057;-76
2022/08/09 05:15:55;;;;;;;2.25;0.85;;;;;;;19.16;80.48;100135.25;1716979;81;21201;-76
2022/08/09 05:18:21;;;;;;;1.80;1.07;;;;;;;19.19;80.23;100144.41;1696222;84;21094;-76
2022/08/09 05:20:48;;;;;;;2.58;0.90;;;;;;;19.22;80.06;100142.89;1696054;84;21569;-77
2022/08/09 05:23:14;;;;;;;2.45;0.80;;;;;;;19.25;79.47;100137.38;1656527;85;21647;-75
2022/08/09 05:25:41;;;;;;;4.20;1.37;;;;;;;19.25;79.56;100141.38;1654573;86;21522;-76
2022/08/09 05:28:07;;;;;;;2.80;0.78;;;;;;;19.30;79.85;100142.44;1683552;85;21558;-76
2022/08/09 05:30:34;;;;;;;1.55;1.02;;;;;;;19.33;79.70;100142.23;1683943;85;21138;-75
2022/08/09 05:33:00;;;;;;;2.45;1.00;;;;;;;19.35;79.72;100147.02;1689087;84;21030;-77
2022/08/09 05:35:27;;;;;;;1.70;0.70;;;;;;;19.40;79.79;100140.05;1638745;86;22335;-76
2022/08/09 05:37:54;;;;;;;1.32;0.82;;;;;;;19.45;79.55;100143.28;1627881;87;21553;-77
2022/08/09 05:40:21;;;;;;;2.58;0.90;;;;;;;19.50;79.04;100143.86;1637592;87;21566;-75
2022/08/09 05:42:48;;;;;;;2.10;1.07;;;;;;;19.57;79.36;100150.55;1628174;87;21157;-75
2022/08/09 05:45:15;;;;;;;3.42;0.80;;;;;;;19.63;79.36;100142.14;1637806;87;21504;-76
2022/08/09 05:47:42;;;;;;;0.70;0.70;;;;;;;19.70;78.64;100144.44;1627898;87;21640;-76
2022/08/09 05:50:09;;;;;;;5.42;0.70;;;;;;;19.77;78.39;100149.80;1637612;87;21172;-76
2022/08/09 05:52:35;;;;;;;2.98;0.80;;;;;;;19.81;78.22;100154.86;1627840;88;21656;-76
2022/08/09 05:55:01;;;;;;;1.77;0.90;;;;;;;19.87;77.76;100161.65;1637738;87;21109;-76
2022/08/09 05:57:28;;;;;;;6.33;1.67;;;;;;;19.90;77.91;100160.58;1628294;88;21078;-76
2022/08/09 05:59:54;;;;;;;2.72;0.72;;;;;;;19.96;77.88;100154.38;1637463;87;21174;-77
2022/08/09 06:02:21;;;;;;;0.93;0.80;;;;;;;20.06;78.19;100157.81;1627914;88;21074;-76
2022/08/09 06:04:47;;;;;;;8.93;1.05;;;;;;;20.16;77.90;100153.10;1637810;87;21107;-75
2022/08/09 06:07:14;;;;;;;1.70;0.90;;;;;;;20.27;77.65;100157.73;1627857;88;21091;-76
2022/08/09 06:09:40;;;;;;;4.25;0.82;;;;;;;20.39;77.17;100149.39;1637891;87;21155;-76
2022/08/09 06:12:09;;;;;;;4.65;1.00;;;;;;;20.48;76.47;100155.98;1627880;88;21091;-76
2022/08/09 06:14:35;;;;;;;4.65;1.00;;;;;;;20.57;75.77;100156.70;1637575;87;21089;-76
2022/08/09 06:17:02;;;;;;;1.07;0.80;;;;;;;20.66;75.39;100158.81;1627883;87;21127;-77
2022/08/09 06:19:28;;;;;;;1.22;0.88;;;;;;;20.78;74.62;100163.33;1637562;87;21023;-76
2022/08/09 06:21:55;;;;;;;1.87;0.95;;;;;;;20.89;74.33;100156.39;1627980;88;21130;-76
2022/08/09 06:24:21;;;;;;;2.33;0.80;;;;;;;20.99;73.46;100165.52;1637658;87;22203;-76
2022/08/09 06:26:48;;;;;;;0.72;0.60;;;;;;;21.08;73.29;100163.56;1628074;88;21011;-76
2022/08/09 06:29:14;;;;;;;1.65;1.10;;;;;;;21.22;72.19;100161.27;1637774;87;21093;-75
2022/08/09 06:31:41;;;;;;;1.05;0.78;;;;;;;21.33;71.51;100160.52;1628200;88;21126;-75
2022/08/09 06:34:07;;;;;;;1.07;0.80;;;;;;;21.45;71.47;100152.99;1640602;86;21032;-76
2022/08/09 06:36:34;;;;;;;2.72;0.78;;;;;;;21.58;71.21;100151.66;1688274;85;21150;-75
2022/08/09 06:39:00;;;;;;;0.90;0.90;;;;;;;21.66;70.12;100155.15;1687917;85;22048;-74
2022/08/09 06:41:27;;;;;;;3.33;0.70;;;;;;;21.72;69.05;100153.39;1688090;85;21071;-73
2022/08/09 06:43:54;;;;;;;9.88;0.80;;;;;;;21.72;67.75;100153.39;1688542;85;21151;-74
2022/08/09 06:46:20;;;;;;;3.80;0.75;;;;;;;21.70;66.87;100150.81;1705728;82;20995;-73
2022/08/09 06:48:47;;;;;;;1.80;0.82;;;;;;;21.68;67.49;100155.89;1718801;83;21887;-73
2022/08/09 06:51:13;;;;;;;0.65;0.60;;;;;;;21.70;67.69;100158.85;1718897;83;21603;-73
2022/08/09 06:53:40;;;;;;;3.22;0.62;;;;;;;21.76;68.60;100154.02;1718541;83;20952;-73
2022/08/09 06:56:07;;;;;;;4.50;0.60;;;;;;;21.80;68.61;100159.03;1719093;83;21573;-73
2022/08/09 06:58:34;;;;;;;1.35;0.78;;;;;;;21.84;67.15;100163.22;1718655;83;21086;-72
2022/08/09 07:01:00;;;;;;;1.15;0.88;;;;;;;21.88;66.32;100163.36;1719021;83;21800;-74
2022/08/09 07:03:27;;;;;;;2.25;0.70;;;;;;;21.89;66.76;100170.44;1718564;83;21620;-72
2022/08/09 07:05:54;;;;;;;0.93;0.80;;;;;;;21.96;66.24;100175.38;1718738;83;21011;-74
2022/08/09 07:08:21;;;;;;;2.98;0.80;;;;;;;22.01;65.83;100170.05;1718730;83;21117;-74
2022/08/09 07:10:47;;;;;;;4.10;0.90;;;;;;;22.07;66.26;100168.27;1712865;81;21189;-73
2022/08/09 07:13:14;;;;;;;4.55;1.00;;;;;;;22.13;65.76;100172.32;1687925;85;22188;-73
2022/08/09 07:15:40;;;;;;;1.55;0.85;;;;;;;22.15;65.06;100174.39;1688074;85;20988;-72
2022/08/09 07:18:07;;;;;;;3.83;0.80;;;;;;;22.16;65.09;100177.46;1688455;85;21107;-73
2022/08/09 07:20:33;;;;;;;3.08;0.70;;;;;;;22.15;63.45;100178.41;1688239;85;21023;-73
2022/08/09 07:23:00;;;;;;;2.85;0.72;;;;;;;22.09;63.89;100178.88;1688203;85;21083;-73
2022/08/09 07:25:27;;;;;;;1.10;0.70;;;;;;;22.06;64.06;100179.09;1688270;85;21107;-73
2022/08/09 07:27:54;;;;;;;2.42;0.60;;;;;;;22.07;64.30;100179.45;1687993;85;21131;-74
2022/08/09 07:30:20;;;;;;;0.93;0.50;;;;;;;22.10;63.66;100173.88;1688347;85;21645;-73
2022/08/09 07:32:47;;;;;;;4.28;0.80;;;;;;;22.15;63.27;100177.08;1688230;85;21008;-73
2022/08/09 07:35:13;;;;;;;3.77;0.60;;;;;;;22.21;63.46;100179.33;1688031;83;21008;-73
2022/08/09 07:37:42;;;;;;;2.58;0.62;;;;;;;22.26;63.43;100173.14;1688416;85;21122;-72
2022/08/09 07:40:10;;;;;;;2.17;0.57;;;;;;;22.32;63.42;100167.83;1687828;85;21068;-75
2022/08/09 07:42:52;;;;;;;1.22;0.78;;;;;;;22.36;63.38;100172.48;1688326;85;21668;-76
2022/08/09 07:45:24;;;;;;;0.60;0.60;;;;;;;22.34;62.25;100166.39;1688389;85;21063;-76
2022/08/09 07:47:46;;;;;;;4.12;0.60;;;;;;;22.36;62.56;100168.46;1688274;84;21067;-75
2022/08/09 07:50:13;;;;;;;6.00;0.62;;;;;;;22.43;62.04;100172.42;1688258;85;21126;-77
2022/08/09 07:52:40;;;;;;;2.35;0.70;;;;;;;22.44;62.03;100172.78;1688631;85;21658;-75
2022/08/09 07:55:08;;;;;;;2.80;0.50;;;;;;;22.47;61.85;100172.56;1688147;85;21530;-76
2022/08/09 07:57:34;;;;;;;1.22;0.50;;;;;;;22.50;61.79;100175.02;1688667;85;21075;-75
2022/08/09 08:00:02;;;;;;;4.83;0.65;;;;;;;22.52;61.18;100176.25;1688353;85;21080;-77
2022/08/09 08:02:30;;;;;;;0.50;0.50;;;;;;;22.55;60.97;100182.23;1687514;84;21169;-76
2022/08/09 08:04:57;;;;;;;0.93;0.60;;;;;;;22.57;58.66;100182.97;1688248;85;21594;-76
2022/08/09 08:07:23;;;;;;;1.00;0.60;;;;;;;22.57;58.81;100178.95;1688715;85;21052;-75
2022/08/09 08:09:51;;;;;;;0.40;0.40;;;;;;;22.57;59.18;100184.31;1688387;85;21114;-76
2022/08/09 08:12:18;;;;;;;1.47;0.80;;;;;;;22.61;58.35;100189.84;1688369;85;21621;-76
2022/08/09 08:14:44;;;;;;;2.65;0.90;;;;;;;22.66;58.63;100188.63;1688486;85;21145;-76
2022/08/09 08:17:11;;;;;;;1.82;0.50;;;;;;;22.69;58.17;100194.61;1688210;85;21124;-76
2022/08/09 08:19:38;;;;;;;1.95;0.53;;;;;;;22.72;57.17;100194.88;1688650;85;21109;-76
2022/08/09 08:22:04;;;;;;;2.05;0.60;;;;;;;22.70;56.29;100203.04;1688249;85;21064;-76
2022/08/09 08:24:31;;;;;;;1.65;0.53;;;;;;;22.66;56.75;100206.06;1688366;85;21032;-76
2022/08/09 08:26:57;;;;;;;0.62;0.50;;;;;;;22.63;57.22;100205.81;1688461;85;21135;-77
2022/08/09 08:29:24;;;;;;;4.12;0.53;;;;;;;22.60;56.78;100205.55;1688187;85;21139;-73
2022/08/09 08:31:51;;;;;;;5.72;0.50;;;;;;;22.57;56.86;100208.45;1688487;85;21111;-73
2022/08/09 08:34:17;;;;;;;3.55;0.93;;;;;;;22.59;57.74;100206.53;1689215;83;21039;-73
2022/08/09 08:36:44;;;;;;;1.15;0.70;;;;;;;22.61;57.51;100207.27;1721033;83;21565;-73
2022/08/09 08:39:10;;;;;;;0.95;0.70;;;;;;;22.62;56.74;100202.26;1721442;83;21582;-73
2022/08/09 08:41:37;;;;;;;2.77;0.70;;;;;;;22.63;56.95;100202.64;1721249;83;21032;-73
2022/08/09 08:44:04;;;;;;;2.05;0.60;;;;;;;22.67;56.60;100202.42;1721303;83;21146;-73
2022/08/09 08:46:38;;;;;;;4.62;0.68;;;;;;;22.67;57.37;100195.22;1722411;82;21039;-73
2022/08/09 08:49:09;;;;;;;1.32;0.50;;;;;;;22.69;56.29;100194.61;1724372;83;21078;-73
2022/08/09 08:51:35;;;;;;;0.75;0.62;;;;;;;22.70;55.87;100194.99;1724246;83;21140;-76
2022/08/09 08:54:06;;;;;;;0.62;0.62;;;;;;;22.73;56.69;100186.72;1724053;83;21030;-76
2022/08/09 08:56:37;;;;;;;2.05;0.72;;;;;;;22.77;56.20;100188.69;1724242;83;21078;-76
2022/08/09 08:59:05;;;;;;;0.70;0.47;;;;;;;22.78;55.76;100183.70;1724079;83;21016;-73
2022/08/09 09:01:34;;;;;;;1.20;0.55;;;;;;;22.76;55.42;100189.64;1724877;81;21026;-75
2022/08/09 09:04:02;;;;;;;1.40;0.50;;;;;;;22.73;55.71;100182.70;1752232;81;21117;-74
2022/08/09 09:06:31;;;;;;;2.08;0.82;;;;;;;22.73;55.69;100183.16;1757458;81;21935;-74
2022/08/09 09:08:57;;;;;;;5.58;0.60;;;;;;;22.73;55.98;100180.02;1757287;81;21117;-75
2022/08/09 09:11:24;;;;;;;0.72;0.72;;;;;;;22.75;55.98;100171.86;1757455;81;21058;-75
2022/08/09 09:13:51;;;;;;;4.83;1.40;;;;;;;22.73;55.19;100173.31;1757321;81;21640;-74
2022/08/09 09:16:17;;;;;;;4.80;2.90;;;;;;;22.75;55.55;100179.91;1757437;81;21604;-74
2022/08/09 09:18:44;;;;;;;2.45;2.30;;;;;;;22.79;56.87;100182.72;1757535;81;21157;-74
2022/08/09 09:21:10;;;;;;;7.33;4.28;;;;;;;22.83;56.97;100177.50;1729618;81;21002;-74
2022/08/09 09:23:43;;;;;;;1.87;1.30;;;;;;;22.82;56.84;100179.80;1757565;81;21047;-74
2022/08/09 09:26:12;;;;;;;2.20;0.50;;;;;;;22.79;56.75;100181.38;1757318;81;21105;-74
2022/08/09 09:28:45;;;;;;;5.50;0.55;;;;;;;22.74;55.54;100178.18;1757560;81;21467;-76
2022/08/09 09:31:15;;;;;;;1.77;0.57;;;;;;;22.71;56.12;100177.06;1756643;81;21293;-74
2022/08/09 09:33:41;;;;;;;1.40;0.62;;;;;;;22.71;57.10;100177.06;1757457;81;21086;-75
2022/08/09 09:36:10;;;;;;;1.50;0.53;;;;;;;22.73;57.10;100179.14;1758065;81;22231;-75
2022/08/09 09:38:55;;;;;;;2.92;0.70;;;;;;;22.75;57.30;100175.87;1758587;81;20999;-74
2022/08/09 09:41:27;;;;;;;5.55;0.70;;;;;;;22.81;57.95;100175.39;1757939;81;21105;-75
2022/08/09 09:43:56;;;;;;;0.78;0.60;;;;;;;22.86;57.45;100179.92;1758608;81;21023;-74
2022/08/09 09:46:32;;;;;;;3.33;0.50;;;;;;;22.86;56.63;100174.56;1757617;81;21617;-75
2022/08/09 09:49:05;;;;;;;0.60;0.60;;;;;;;22.85;57.42;100175.55;1758546;81;21121;-74
2022/08/09 09:51:34;;;;;;;1.37;0.60;;;;;;;22.85;57.79;100176.89;1758637;81;21119;-74
2022/08/09 09:54:11;;;;;;;1.50;0.70;;;;;;;22.87;57.58;100177.62;1758867;81;21809;-75
2022/08/09 09:56:43;;;;;;;2.62;0.70;;;;;;;22.91;57.67;100175.07;1758510;81;21066;-75
2022/08/09 09:59:11;;;;;;;1.82;0.65;;;;;;;22.94;56.68;100174.84;1758777;81;21099;-75
2022/08/09 10:01:38;;;;;;;4.17;0.50;;;;;;;22.97;56.76;100173.27;1758695;81;21133;-75
2022/08/09 10:04:17;;;;;;;1.17;0.60;;;;;;;22.98;57.60;100172.31;1758501;81;21133;-75
2022/08/09 10:06:45;;;;;;;0.50;0.40;;;;;;;23.06;58.19;100173.08;1729633;81;21147;-75
2022/08/09 10:09:12;;;;;;;2.22;0.60;;;;;;;23.09;57.70;100170.67;1758796;81;21042;-75
2022/08/09 10:11:39;;;;;;;1.32;0.80;;;;;;;23.13;56.03;100177.50;1758513;81;21126;-74
2022/08/09 10:14:27;;;;;;;0.95;0.60;;;;;;;23.18;56.24;100171.28;1758604;81;21553;-74
2022/08/09 10:16:54;;;;;;;1.10;0.62;;;;;;;23.22;56.52;100162.04;1758376;81;20987;-74
2022/08/09 10:19:20;;;;;;;0.95;0.60;;;;;;;23.29;54.62;100161.92;1758415;81;21132;-74
2022/08/09 10:21:48;;;;;;;6.28;0.85;;;;;;;23.29;53.52;100164.61;1758653;81;21074;-74
2022/08/09 10:24:17;;;;;;;2.37;0.62;;;;;;;23.27;53.97;100157.16;1758427;81;20991;-75
2022/08/09 10:26:47;;;;;;;0.88;0.70;;;;;;;23.25;54.42;100163.15;1758848;81;21058;-75
2022/08/09 10:29:14;;;;;;;2.22;0.50;;;;;;;23.22;54.56;100160.70;1758574;81;21563;-75
2022/08/09 10:31:40;;;;;;;4.28;0.72;;;;;;;23.23;53.90;100158.36;1758913;81;21820;-74
2022/08/09 10:34:12;;;;;;;0.70;0.37;;;;;;;23.12;52.56;100165.06;1758155;81;22052;-75
2022/08/09 10:36:39;;;;;;;1.30;0.70;;;;;;;23.00;53.16;100166.83;1727831;81;21663;-74
2022/08/09 10:39:05;;;;;;;0.72;0.53;;;;;;;22.90;53.02;100163.98;1754155;81;21386;-75
2022/08/09 10:41:32;;;;;;;0.95;0.50;;;;;;;22.85;53.82;100158.11;1725114;81;21039;-74
2022/08/09 10:43:58;;;;;;;4.03;0.60;;;;;;;22.80;54.02;100150.41;1720268;83;21132;-75
2022/08/09 10:46:39;;;;;;;1.55;0.57;;;;;;;22.80;53.47;100158.95;1720238;82;21055;-74
2022/08/09 10:49:34;;;;;;;0.68;0.60;;;;;;;22.76;52.94;100161.48;1720417;82;21075;-75
2022/08/09 10:52:47;;;;;;;1.12;0.62;;;;;;;22.69;52.11;100153.03;1685535;85;21089;-75
2022/08/09 10:55:24;;;;;;;1.60;0.72;;;;;;;22.63;52.13;100155.70;1720039;83;21044;-74
2022/08/09 10:57:51;;;;;;;0.88;0.60;;;;;;;22.61;53.13;100151.41;1720440;83;21116;-74
2022/08/09 11:00:33;;;;;;;1.57;0.50;;;;;;;22.60;52.71;100151.91;1720155;83;21110;-74
2022/08/09 11:03:00;;;;;;;1.05;0.50;;;;;;;22.59;51.18;100154.23;1723852;81;20965;-76
2022/08/09 11:05:27;;;;;;;2.10;0.50;;;;;;;22.57;51.80;100150.79;1715603;83;21114;-75
2022/08/09 11:07:54;;;;;;;0.70;0.50;;;;;;;22.53;50.46;100150.66;1715424;83;21068;-75
2022/08/09 11:10:45;;;;;;;1.22;0.57;;;;;;;22.49;51.21;100151.84;1715614;83;21198;-74
2022/08/09 11:13:16;;;;;;;0.50;0.50;;;;;;;22.48;50.95;100152.83;1674477;83;21015;-75
2022/08/09 11:15:43;;;;;;;3.58;0.50;;;;;;;22.44;49.34;100145.50;1715882;83;21509;-75
2022/08/09 11:18:14;;;;;;;1.10;0.50;;;;;;;22.36;49.61;100142.98;1715770;83;21150;-74
2022/08/09 11:20:46;;;;;;;0.47;0.40;;;;;;;22.34;49.17;100138.23;1715600;83;21035;-75
2022/08/09 11:23:13;;;;;;;0.93;0.60;;;;;;;22.32;48.54;100142.86;1715578;83;22073;-74
2022/08/09 11:25:43;;;;;;;0.57;0.47;;;;;;;22.29;48.69;100143.93;1715655;83;21032;-75
2022/08/09 11:28:32;;;;;;;8.90;0.60;;;;;;;22.26;48.07;100135.61;1715104;83;21111;-74
2022/08/09 11:31:01;;;;;;;0.93;0.40;;;;;;;22.26;48.14;100141.47;1674335;83;21032;-74
2022/08/09 11:33:39;;;;;;;0.78;0.50;;;;;;;22.28;48.41;100142.70;1715692;83;21071;-74
2022/08/09 11:36:06;;;;;;;2.05;0.50;;;;;;;22.28;48.85;100138.67;1706530;83;21325;-75
2022/08/09 11:38:34;;;;;;;1.27;0.53;;;;;;;22.31;49.12;100139.80;1688188;85;21064;-75
2022/08/09 11:41:15;;;;;;;2.80;0.70;;;;;;;22.26;48.39;100138.78;1688239;85;21142;-74
2022/08/09 11:43:47;;;;;;;0.93;0.50;;;;;;;22.22;48.07;100143.48;1688200;85;21083;-74
2022/08/09 11:46:14;;;;;;;5.92;0.60;;;;;;;22.21;47.79;100138.27;1688199;85;21001;-74
2022/08/09 11:48:52;;;;;;;1.07;0.50;;;;;;;22.14;48.45;100139.20;1688408;85;21113;-73
2022/08/09 11:51:21;;;;;;;1.42;0.60;;;;;;;22.13;49.38;100144.18;1688019;85;21094;-74
2022/08/09 11:53:48;;;;;;;2.25;0.40;;;;;;;22.16;49.51;100136.41;1688186;85;21122;-72
2022/08/09 11:56:24;;;;;;;1.65;0.50;;;;;;;22.19;50.17;100134.36;1688102;85;21009;-75
2022/08/09 11:58:58;;;;;;;0.60;0.50;;;;;;;22.21;50.17;100136.44;1688179;85;21490;-73